Time;durP1;ratioP1;P1;durP2;ratioP2;P2;SDS_P1;SDS_P2;PMS_P1;PMS_P2;Temp;Humidity;BMP_temperature;BMP_pressure;BME280_temperature;BME280_humidity;BME280_pressure;Samples;Min_cycle;Max_cycle;Signal;HPM_P1;HPM_P2
2021/08/15 00:00:06;;;;;;;9.85;4.32;;;18.50;70.60;;;;;;5090921;28;20040;-91
2021/08/15 00:02:33;;;;;;;9.90;3.63;;;18.40;70.50;;;;;;5090846;28;20052;-91
2021/08/15 00:05:00;;;;;;;9.48;3.88;;;18.40;70.50;;;;;;5093004;28;20080;-90
2021/08/15 00:07:27;;;;;;;11.43;4.30;;;18.40;70.50;;;;;;5090499;28;20040;-93
2021/08/15 00:09:54;;;;;;;9.30;4.20;;;18.40;70.50;;;;;;5090627;28;20047;-91
2021/08/15 00:12:21;;;;;;;17.00;4.32;;;18.30;70.60;;;;;;5090867;28;20044;-91
2021/08/15 00:14:48;;;;;;;11.45;3.95;;;18.30;70.60;;;;;;5090849;28;20044;-92
2021/08/15 00:17:15;;;;;;;9.65;4.00;;;18.30;70.60;;;;;;5091330;28;20059;-90
2021/08/15 00:19:42;;;;;;;9.70;4.30;;;18.20;70.60;;;;;;5089820;28;20052;-90
2021/08/15 00:22:10;;;;;;;10.50;4.45;;;18.20;70.70;;;;;;5090340;28;20040;-89
2021/08/15 00:24:38;;;;;;;7.18;4.00;;;18.20;70.70;;;;;;5090919;28;20101;-92
2021/08/15 00:27:05;;;;;;;10.75;3.55;;;18.20;70.90;;;;;;5090958;28;20164;-92
2021/08/15 00:29:32;;;;;;;11.82;4.07;;;18.10;70.90;;;;;;5094842;28;20055;-92
2021/08/15 00:31:59;;;;;;;11.30;4.05;;;18.10;70.80;;;;;;5096871;28;20464;-92
2021/08/15 00:34:28;;;;;;;10.60;4.28;;;18.10;70.70;;;;;;5094355;28;20048;-86
2021/08/15 00:36:55;;;;;;;8.77;3.40;;;18.00;70.70;;;;;;5093218;28;20051;-92
2021/08/15 00:39:22;;;;;;;20.73;4.10;;;18.00;70.90;;;;;;5094573;28;20109;-91
2021/08/15 00:41:48;;;;;;;8.38;3.83;;;18.00;71.00;;;;;;5094787;28;20048;-91
2021/08/15 00:44:16;;;;;;;11.13;4.15;;;18.00;70.90;;;;;;5096442;28;20048;-90
2021/08/15 00:46:43;;;;;;;7.18;4.10;;;17.90;70.90;;;;;;5092492;28;20459;-89
2021/08/15 00:49:10;;;;;;;9.90;3.60;;;17.90;70.90;;;;;;5093034;28;20052;-90
2021/08/15 00:51:37;;;;;;;10.02;3.85;;;17.90;70.90;;;;;;5094568;28;20081;-92
2021/08/15 00:54:05;;;;;;;11.35;4.57;;;17.80;71.10;;;;;;5094440;28;20481;-91
2021/08/15 00:56:32;;;;;;;9.30;4.22;;;17.80;71.20;;;;;;5094350;28;20074;-92
2021/08/15 00:59:03;;;;;;;11.48;4.28;;;17.80;71.20;;;;;;5096377;28;20468;-92
2021/08/15 01:01:32;;;;;;;11.68;4.03;;;17.80;71.30;;;;;;5094305;28;20048;-91
2021/08/15 01:04:04;;;;;;;9.60;3.90;;;17.70;71.40;;;;;;5092779;28;20547;-92
2021/08/15 01:06:33;;;;;;;7.47;3.63;;;17.70;71.30;;;;;;5094191;28;20044;-92
2021/08/15 01:09:02;;;;;;;8.18;3.80;;;17.70;71.50;;;;;;5094476;28;20048;-92
2021/08/15 01:11:32;;;;;;;15.77;4.13;;;17.60;71.50;;;;;;5093135;28;20044;-92
2021/08/15 01:14:05;;;;;;;9.02;4.05;;;17.60;71.50;;;;;;5094659;28;20127;-92
2021/08/15 01:16:34;;;;;;;7.15;3.80;;;17.60;71.60;;;;;;5092373;28;20066;-92
2021/08/15 01:19:01;;;;;;;11.38;3.72;;;17.60;71.70;;;;;;5092629;28;20490;-93
2021/08/15 01:21:28;;;;;;;7.20;3.70;;;17.50;71.60;;;;;;5094002;28;20052;-94
2021/08/15 01:23:55;;;;;;;10.13;3.67;;;17.50;71.50;;;;;;5093883;28;20071;-93
2021/08/15 01:26:22;;;;;;;9.95;4.22;;;17.40;71.40;;;;;;5094997;28;20200;-92
2021/08/15 01:28:50;;;;;;;7.05;3.83;;;17.40;71.30;;;;;;5094151;28;20044;-93
2021/08/15 01:31:18;;;;;;;10.20;3.78;;;17.40;71.50;;;;;;5092763;28;20538;-94
2021/08/15 01:33:45;;;;;;;10.43;3.72;;;17.40;71.70;;;;;;5093627;28;20075;-91
2021/08/15 01:36:17;;;;;;;9.52;4.03;;;17.40;71.70;;;;;;5093805;28;20101;-93
2021/08/15 01:38:45;;;;;;;11.00;3.75;;;17.40;71.60;;;;;;5077349;28;20468;-95
2021/08/15 01:41:12;;;;;;;6.20;3.42;;;17.30;71.50;;;;;;5091624;28;20105;-93
2021/08/15 01:43:57;;;;;;;10.85;3.85;;;17.30;71.50;;;;;;5093747;28;20048;-95
2021/08/15 01:46:29;;;;;;;10.98;3.80;;;17.20;71.50;;;;;;5093495;28;20117;-92
2021/08/15 01:48:58;;;;;;;10.70;3.92;;;17.20;71.60;;;;;;5093168;28;20040;-94
2021/08/15 01:51:25;;;;;;;9.60;3.83;;;17.20;71.90;;;;;;5093384;28;20051;-93
2021/08/15 01:53:54;;;;;;;6.80;3.40;;;17.20;71.80;;;;;;5092183;28;20106;-94
2021/08/15 01:56:22;;;;;;;7.80;3.75;;;17.10;71.80;;;;;;5094694;28;20078;-93
2021/08/15 01:58:49;;;;;;;12.20;4.47;;;17.10;71.80;;;;;;5094557;28;20044;-92
2021/08/15 02:01:18;;;;;;;9.27;3.92;;;17.10;71.70;;;;;;5093358;28;20097;-92
2021/08/15 02:03:45;;;;;;;16.38;4.22;;;17.00;71.80;;;;;;5092745;28;20513;-92
2021/08/15 02:06:13;;;;;;;10.90;3.90;;;17.00;72.00;;;;;;5093265;28;20051;-94
2021/08/15 02:08:40;;;;;;;9.35;4.28;;;17.00;72.10;;;;;;5093440;28;20089;-90
2021/08/15 02:11:07;;;;;;;8.02;3.72;;;16.90;72.10;;;;;;5095120;28;20044;-94
2021/08/15 02:13:34;;;;;;;8.63;3.97;;;16.90;72.10;;;;;;5093161;28;20048;-93
2021/08/15 02:16:00;;;;;;;9.93;3.92;;;16.90;72.20;;;;;;5092479;28;20101;-93
2021/08/15 02:18:28;;;;;;;10.23;4.05;;;16.90;72.20;;;;;;5092943;28;20052;-93
2021/08/15 02:20:55;;;;;;;13.70;4.40;;;16.90;72.30;;;;;;5093009;28;20505;-92
2021/08/15 02:23:21;;;;;;;11.82;4.60;;;16.90;72.40;;;;;;5094048;28;20056;-90
2021/08/15 02:25:48;;;;;;;10.88;3.67;;;16.90;72.40;;;;;;5094180;28;20109;-92
2021/08/15 02:28:15;;;;;;;10.60;3.72;;;16.80;72.40;;;;;;5092691;28;20562;-92
2021/08/15 02:30:42;;;;;;;9.25;3.65;;;16.80;72.40;;;;;;5092345;28;20078;-91
2021/08/15 02:33:09;;;;;;;9.27;3.78;;;16.80;72.30;;;;;;5091401;28;20516;-91
2021/08/15 02:35:36;;;;;;;7.63;3.88;;;16.80;72.40;;;;;;5092624;28;20110;-92
2021/08/15 02:38:03;;;;;;;7.95;3.78;;;16.70;72.30;;;;;;5094745;28;20044;-94
2021/08/15 02:40:30;;;;;;;7.45;3.60;;;16.70;72.20;;;;;;5092434;28;20135;-90
2021/08/15 02:42:58;;;;;;;8.90;3.60;;;16.70;72.20;;;;;;5092305;28;20567;-92
2021/08/15 02:45:25;;;;;;;14.48;4.18;;;16.60;72.10;;;;;;5092200;28;20052;-93
2021/08/15 02:47:53;;;;;;;6.85;3.10;;;16.60;72.30;;;;;;5092383;28;20048;-93
2021/08/15 02:50:22;;;;;;;12.05;4.70;;;16.60;72.40;;;;;;5093033;28;20395;-90
2021/08/15 02:52:49;;;;;;;6.50;3.50;;;16.50;72.50;;;;;;5093594;28;20048;-93
2021/08/15 02:55:16;;;;;;;8.13;4.10;;;16.50;72.60;;;;;;5092085;28;20048;-94
2021/08/15 02:57:43;;;;;;;7.93;3.97;;;16.50;72.70;;;;;;5090678;28;20044;-93
2021/08/15 03:00:11;;;;;;;10.52;3.90;;;16.50;72.70;;;;;;5092195;28;20563;-90
2021/08/15 03:02:39;;;;;;;8.68;3.72;;;16.50;72.80;;;;;;5092330;28;20109;-93
2021/08/15 03:05:08;;;;;;;7.30;3.78;;;16.50;72.80;;;;;;5093335;28;20551;-93
2021/08/15 03:07:35;;;;;;;7.28;3.03;;;16.40;72.70;;;;;;5092283;28;20053;-92
2021/08/15 03:10:03;;;;;;;7.28;3.45;;;16.40;72.70;;;;;;5091784;28;20509;-93
2021/08/15 03:12:30;;;;;;;7.45;3.45;;;16.40;72.70;;;;;;5090724;28;20464;-90
2021/08/15 03:14:57;;;;;;;9.40;3.92;;;16.40;72.70;;;;;;5091887;28;20051;-93
2021/08/15 03:17:24;;;;;;;8.20;3.72;;;16.40;72.70;;;;;;5092770;28;20059;-93
2021/08/15 03:19:50;;;;;;;9.93;4.03;;;16.40;72.60;;;;;;5093496;28;20052;-92
2021/08/15 03:22:17;;;;;;;9.05;4.00;;;16.40;72.70;;;;;;5091834;28;20463;-92
2021/08/15 03:24:44;;;;;;;9.77;3.70;;;16.30;72.80;;;;;;5090741;28;20505;-93
2021/08/15 03:27:11;;;;;;;9.32;3.40;;;16.30;72.80;;;;;;5091916;28;20044;-91
2021/08/15 03:29:38;;;;;;;9.40;3.72;;;16.30;72.90;;;;;;5091484;28;20097;-93
2021/08/15 03:32:05;;;;;;;9.52;3.67;;;16.30;72.90;;;;;;5093908;28;20105;-93
2021/08/15 03:34:32;;;;;;;7.82;3.28;;;16.20;73.00;;;;;;5091526;28;20052;-94
2021/08/15 03:36:59;;;;;;;10.82;3.95;;;16.20;73.00;;;;;;5091436;28;20048;-93
2021/08/15 03:39:29;;;;;;;8.10;3.85;;;16.20;73.10;;;;;;5091540;28;20452;-93
2021/08/15 03:41:58;;;;;;;8.50;3.90;;;16.20;73.20;;;;;;5091636;28;20040;-93
2021/08/15 03:44:30;;;;;;;9.65;4.18;;;16.20;73.30;;;;;;5091854;28;20047;-92
2021/08/15 03:46:58;;;;;;;10.68;3.97;;;16.10;73.40;;;;;;5091794;28;20073;-93
2021/08/15 03:49:26;;;;;;;9.55;3.67;;;16.10;73.50;;;;;;5091150;28;20051;-93
2021/08/15 03:51:57;;;;;;;7.75;3.92;;;16.10;73.60;;;;;;5090102;28;20048;-94
2021/08/15 03:54:25;;;;;;;9.00;4.10;;;16.10;73.70;;;;;;5091239;28;20052;-94
2021/08/15 03:56:52;;;;;;;9.68;4.10;;;16.00;73.70;;;;;;5091378;28;20036;-92
2021/08/15 03:59:21;;;;;;;7.32;3.55;;;16.10;73.80;;;;;;5092389;28;20109;-93
2021/08/15 04:01:48;;;;;;;8.82;3.88;;;16.00;73.70;;;;;;5089862;28;20097;-92
2021/08/15 04:04:15;;;;;;;12.25;3.95;;;16.00;73.60;;;;;;5091214;28;20512;-94
2021/08/15 04:06:42;;;;;;;8.65;4.10;;;16.00;73.50;;;;;;5091016;28;20044;-88
2021/08/15 04:09:10;;;;;;;7.75;3.60;;;16.00;73.40;;;;;;5090343;28;20101;-90
2021/08/15 04:11:39;;;;;;;9.27;3.80;;;15.90;73.40;;;;;;5091394;28;20136;-92
2021/08/15 04:14:06;;;;;;;11.05;3.30;;;15.90;73.40;;;;;;5092954;28;20086;-93
2021/08/15 04:16:34;;;;;;;7.65;3.78;;;15.90;73.40;;;;;;5090844;28;20501;-92
2021/08/15 04:19:00;;;;;;;8.02;3.70;;;15.90;73.50;;;;;;5090836;28;20048;-92
2021/08/15 04:21:27;;;;;;;7.88;3.85;;;15.90;73.70;;;;;;5090920;28;20043;-92
2021/08/15 04:23:54;;;;;;;7.68;3.80;;;15.90;73.90;;;;;;5091012;28;20044;-92
2021/08/15 04:26:21;;;;;;;9.48;3.45;;;15.90;74.00;;;;;;5092361;28;20040;-91
2021/08/15 04:28:48;;;;;;;8.02;3.70;;;15.90;74.10;;;;;;5089165;28;20044;-92
2021/08/15 04:31:15;;;;;;;6.85;3.67;;;15.80;74.00;;;;;;5089405;28;20048;-92
2021/08/15 04:33:42;;;;;;;7.95;3.47;;;15.80;73.90;;;;;;5089846;28;20044;-92
2021/08/15 04:36:09;;;;;;;7.65;3.10;;;15.80;73.90;;;;;;5091069;28;20105;-92
2021/08/15 04:38:36;;;;;;;13.23;3.40;;;15.80;74.00;;;;;;5090955;28;20141;-92
2021/08/15 04:41:03;;;;;;;5.78;3.35;;;15.80;74.00;;;;;;5092429;28;20063;-92
2021/08/15 04:43:32;;;;;;;11.80;4.00;;;15.80;73.90;;;;;;5090747;28;20048;-93
2021/08/15 04:46:00;;;;;;;9.98;3.40;;;15.70;73.90;;;;;;5089569;28;20052;-93
2021/08/15 04:48:27;;;;;;;7.10;3.40;;;15.70;73.90;;;;;;5090734;28;20048;-91
2021/08/15 04:50:54;;;;;;;8.77;3.75;;;15.70;73.90;;;;;;5090821;28;20048;-92
2021/08/15 04:53:21;;;;;;;8.52;3.67;;;15.70;74.00;;;;;;5091990;28;20044;-92
2021/08/15 04:55:48;;;;;;;6.82;3.60;;;15.70;74.00;;;;;;5089048;28;20059;-92
2021/08/15 04:58:15;;;;;;;6.30;3.38;;;15.70;74.00;;;;;;5090489;28;20121;-92
2021/08/15 05:00:42;;;;;;;8.93;3.80;;;15.60;74.00;;;;;;5090487;28;20497;-91
2021/08/15 05:03:09;;;;;;;6.13;3.10;;;15.60;74.30;;;;;;5090768;28;20429;-92
2021/08/15 05:05:39;;;;;;;12.15;4.32;;;15.60;74.40;;;;;;5090531;28;20076;-92
2021/08/15 05:08:06;;;;;;;8.73;3.67;;;15.60;74.40;;;;;;5092721;28;20081;-92
2021/08/15 05:10:33;;;;;;;7.47;3.35;;;15.60;74.40;;;;;;5088608;28;20047;-93
2021/08/15 05:13:00;;;;;;;6.53;3.10;;;15.60;74.40;;;;;;5090553;28;20085;-92
2021/08/15 05:15:27;;;;;;;7.57;3.60;;;15.60;74.40;;;;;;5094070;28;20106;-92
2021/08/15 05:17:54;;;;;;;7.18;3.55;;;15.60;74.50;;;;;;5094040;28;20076;-92
2021/08/15 05:20:21;;;;;;;6.45;3.25;;;15.60;74.60;;;;;;5095356;28;20048;-92
2021/08/15 05:22:48;;;;;;;7.60;3.10;;;15.60;74.70;;;;;;5092802;28;20688;-92
2021/08/15 05:25:15;;;;;;;11.25;3.60;;;15.60;74.80;;;;;;5093478;28;20044;-92
2021/08/15 05:27:42;;;;;;;8.40;3.20;;;15.60;74.80;;;;;;5093914;28;20048;-91
2021/08/15 05:30:09;;;;;;;9.95;3.33;;;15.60;74.80;;;;;;5093857;28;20044;-91
2021/08/15 05:32:36;;;;;;;8.15;3.47;;;15.60;74.80;;;;;;5093826;28;20052;-93
2021/08/15 05:35:03;;;;;;;9.13;3.75;;;15.60;74.80;;;;;;5095870;28;20490;-91
2021/08/15 05:37:30;;;;;;;7.43;3.55;;;15.60;74.90;;;;;;5093636;28;20185;-92
2021/08/15 05:39:57;;;;;;;11.80;4.15;;;15.60;75.10;;;;;;5093213;28;20467;-92
2021/08/15 05:42:24;;;;;;;8.77;3.72;;;15.60;75.20;;;;;;5093507;28;20051;-92
2021/08/15 05:44:51;;;;;;;8.77;3.63;;;15.60;75.20;;;;;;5092637;28;20059;-91
2021/08/15 05:47:18;;;;;;;7.63;3.03;;;15.60;75.20;;;;;;5095145;28;20051;-94
2021/08/15 05:49:45;;;;;;;9.68;3.38;;;15.70;75.20;;;;;;5092483;28;20459;-92
2021/08/15 05:52:11;;;;;;;7.75;3.20;;;15.60;75.30;;;;;;5092924;28;20052;-90
2021/08/15 05:54:38;;;;;;;8.10;3.67;;;15.60;75.50;;;;;;5093197;28;20057;-93
2021/08/15 05:57:05;;;;;;;10.25;3.60;;;15.70;75.50;;;;;;5096441;28;20459;-90
2021/08/15 05:59:34;;;;;;;7.68;3.03;;;15.70;75.70;;;;;;5093682;28;20074;-94
2021/08/15 06:02:01;;;;;;;7.78;3.90;;;15.70;76.00;;;;;;5096772;28;20173;-88
2021/08/15 06:04:28;;;;;;;9.60;3.30;;;15.80;76.10;;;;;;5092358;28;20505;-89
2021/08/15 06:06:55;;;;;;;8.48;3.47;;;15.80;76.20;;;;;;5092221;28;20044;-88
2021/08/15 06:09:22;;;;;;;10.32;3.35;;;15.80;76.40;;;;;;5091859;28;20429;-87
2021/08/15 06:11:49;;;;;;;7.32;3.60;;;15.90;76.40;;;;;;5092306;28;20107;-88
2021/08/15 06:14:16;;;;;;;14.23;3.38;;;15.90;76.50;;;;;;5094293;28;20113;-88
2021/08/15 06:16:43;;;;;;;6.95;3.28;;;16.00;76.60;;;;;;5090805;28;20399;-88
2021/08/15 06:19:10;;;;;;;10.05;3.33;;;15.90;76.60;;;;;;5092441;28;20066;-91
2021/08/15 06:21:37;;;;;;;8.98;3.63;;;16.00;76.70;;;;;;5092320;28;20048;-92
2021/08/15 06:24:05;;;;;;;8.10;3.30;;;16.10;76.80;;;;;;5092764;28;20498;-92
2021/08/15 06:26:32;;;;;;;5.97;3.03;;;16.10;76.80;;;;;;5093420;28;20445;-92
2021/08/15 06:28:59;;;;;;;8.63;3.67;;;16.20;76.90;;;;;;5092944;28;20123;-91
2021/08/15 06:31:26;;;;;;;7.05;3.17;;;16.20;77.00;;;;;;5092525;28;20066;-91
2021/08/15 06:33:53;;;;;;;7.28;3.53;;;16.30;77.00;;;;;;5089588;28;20144;-92
2021/08/15 06:36:20;;;;;;;7.30;3.72;;;16.30;77.00;;;;;;5090464;28;20048;-92
2021/08/15 06:38:51;;;;;;;7.32;3.17;;;16.40;77.30;;;;;;5090143;28;20547;-90
2021/08/15 06:41:19;;;;;;;6.80;3.47;;;16.40;77.50;;;;;;5093291;28;20052;-90
2021/08/15 06:43:45;;;;;;;10.98;3.90;;;16.50;77.80;;;;;;5091749;28;20052;-90
2021/08/15 06:46:13;;;;;;;12.60;3.67;;;16.60;77.90;;;;;;5091681;28;20097;-92
2021/08/15 06:48:40;;;;;;;7.50;3.50;;;16.70;77.80;;;;;;5091721;28;20040;-90
2021/08/15 06:51:07;;;;;;;19.02;3.80;;;16.70;77.80;;;;;;5092049;28;20455;-91
2021/08/15 06:53:36;;;;;;;10.63;3.40;;;16.90;77.60;;;;;;5091847;28;20066;-93
2021/08/15 06:56:05;;;;;;;8.13;3.88;;;16.90;77.60;;;;;;5093962;28;20071;-91
2021/08/15 06:58:32;;;;;;;9.75;3.78;;;16.90;77.60;;;;;;5091951;28;20101;-90
2021/08/15 07:00:59;;;;;;;12.32;4.20;;;17.00;77.80;;;;;;5092014;28;20040;-91
2021/08/15 07:03:26;;;;;;;10.00;3.97;;;17.10;77.80;;;;;;5092017;28;20075;-92
2021/08/15 07:05:54;;;;;;;9.13;4.18;;;17.20;77.80;;;;;;5090723;28;20044;-94
2021/08/15 07:08:21;;;;;;;8.82;3.38;;;17.40;77.90;;;;;;5092922;28;20047;-90
2021/08/15 07:10:48;;;;;;;9.38;3.72;;;17.40;78.00;;;;;;5091297;28;20078;-88
2021/08/15 07:13:19;;;;;;;6.45;3.13;;;17.50;77.90;;;;;;5091357;28;20413;-90
2021/08/15 07:15:47;;;;;;;11.10;4.15;;;17.70;78.00;;;;;;5091404;28;20052;-93
2021/08/15 07:18:15;;;;;;;12.88;4.25;;;17.80;78.00;;;;;;5091401;28;20135;-91
2021/08/15 07:20:42;;;;;;;7.80;3.58;;;17.90;78.00;;;;;;5090830;28;20074;-88
2021/08/15 07:23:09;;;;;;;9.65;3.28;;;18.00;77.90;;;;;;5092947;28;20047;-89
2021/08/15 07:25:36;;;;;;;9.60;3.70;;;18.10;77.70;;;;;;5091019;28;20047;-92
2021/08/15 07:28:03;;;;;;;8.80;4.05;;;18.30;77.60;;;;;;5085195;28;20036;-90
2021/08/15 07:30:30;;;;;;;8.27;3.72;;;18.40;77.60;;;;;;5087657;28;20403;-89
2021/08/15 07:33:03;;;;;;;7.65;4.07;;;18.40;77.60;;;;;;5075175;28;20048;-92
2021/08/15 07:35:32;;;;;;;11.93;4.75;;;18.60;77.60;;;;;;5074488;28;20048;-91
2021/08/15 07:37:59;;;;;;;9.43;3.83;;;18.70;77.60;;;;;;5076789;28;20052;-89
2021/08/15 07:40:27;;;;;;;11.27;3.40;;;18.90;77.50;;;;;;5076807;28;20170;-89
2021/08/15 07:42:54;;;;;;;9.02;3.63;;;19.00;77.40;;;;;;5078381;28;20048;-91
2021/08/15 07:45:25;;;;;;;18.52;4.57;;;19.20;77.00;;;;;;5079141;28;20071;-90
2021/08/15 07:47:53;;;;;;;9.85;4.20;;;19.30;76.70;;;;;;5074867;28;20051;-92
2021/08/15 07:50:23;;;;;;;18.30;3.53;;;19.40;76.40;;;;;;5088401;28;20044;-88
2021/08/15 07:52:50;;;;;;;9.35;3.70;;;19.50;75.70;;;;;;5087220;28;20044;-89
2021/08/15 07:55:18;;;;;;;10.23;3.90;;;19.70;75.20;;;;;;5086561;28;20130;-89
2021/08/15 07:57:45;;;;;;;17.27;4.20;;;19.90;75.00;;;;;;5078700;28;20049;-91
2021/08/15 08:00:12;;;;;;;12.20;3.97;;;19.90;74.40;;;;;;5075628;28;20052;-90
2021/08/15 08:02:39;;;;;;;7.25;3.50;;;20.10;74.00;;;;;;5073015;28;20056;-90
2021/08/15 08:05:06;;;;;;;6.63;3.65;;;20.30;73.80;;;;;;5076535;28;20072;-89
2021/08/15 08:07:33;;;;;;;11.77;3.53;;;20.40;73.50;;;;;;5075893;28;20461;-91
2021/08/15 08:10:00;;;;;;;9.15;3.60;;;20.50;73.30;;;;;;5079858;28;20044;-90
2021/08/15 08:12:31;;;;;;;10.73;3.85;;;20.60;73.00;;;;;;5086557;28;20044;-89
2021/08/15 08:14:59;;;;;;;9.80;3.47;;;20.80;72.50;;;;;;5073604;28;20131;-91
2021/08/15 08:17:26;;;;;;;9.35;3.45;;;20.90;72.20;;;;;;5073828;28;20065;-91
2021/08/15 08:19:53;;;;;;;9.85;3.47;;;21.10;71.90;;;;;;5075931;28;20056;-88
2021/08/15 08:22:20;;;;;;;8.82;3.33;;;21.20;71.60;;;;;;5076456;28;20049;-92
2021/08/15 08:24:46;;;;;;;11.48;4.03;;;21.40;71.60;;;;;;5077708;28;20555;-91
2021/08/15 08:27:13;;;;;;;11.40;3.47;;;21.50;71.60;;;;;;5120489;28;20098;-90
2021/08/15 08:29:40;;;;;;;13.70;3.85;;;21.70;71.60;;;;;;5072146;28;20048;-91
2021/08/15 08:32:07;;;;;;;12.23;4.20;;;21.80;71.00;;;;;;5076827;28;20052;-90
2021/08/15 08:34:34;;;;;;;12.43;3.70;;;21.90;70.70;;;;;;5084291;28;20052;-89
2021/08/15 08:37:01;;;;;;;12.20;3.58;;;22.10;70.40;;;;;;5081289;28;20518;-90
2021/08/15 08:39:30;;;;;;;11.43;3.38;;;22.30;70.30;;;;;;5076374;28;20047;-89
2021/08/15 08:42:00;;;;;;;16.98;3.33;;;22.40;70.20;;;;;;5073217;28;20040;-89
2021/08/15 08:44:29;;;;;;;12.40;3.90;;;22.50;69.80;;;;;;5073328;28;20520;-89
2021/08/15 08:47:05;;;;;;;9.02;3.38;;;22.70;69.60;;;;;;5087245;28;20044;-90
2021/08/15 08:49:38;;;;;;;9.52;3.63;;;22.80;69.60;;;;;;5088422;28;20448;-89
2021/08/15 08:52:05;;;;;;;9.77;3.67;;;22.90;69.30;;;;;;5084924;28;20049;-91
2021/08/15 08:54:32;;;;;;;9.27;3.80;;;23.20;68.60;;;;;;5079204;28;20098;-88
2021/08/15 08:56:59;;;;;;;9.32;3.95;;;23.30;68.50;;;;;;5091400;28;20044;-89
2021/08/15 08:59:27;;;;;;;13.20;3.67;;;23.50;68.20;;;;;;5077202;28;20052;-90
2021/08/15 09:01:54;;;;;;;9.35;3.42;;;23.70;67.80;;;;;;5079749;28;20044;-88
2021/08/15 09:04:21;;;;;;;9.35;3.50;;;23.80;67.40;;;;;;5079335;28;20052;-88
2021/08/15 09:06:49;;;;;;;11.27;3.42;;;24.00;67.30;;;;;;5078966;28;20494;-89
2021/08/15 09:09:20;;;;;;;7.32;3.90;;;24.10;66.90;;;;;;5079198;28;20052;-90
2021/08/15 09:11:51;;;;;;;7.97;3.50;;;24.30;66.60;;;;;;5075219;28;20047;-90
2021/08/15 09:14:23;;;;;;;8.15;4.00;;;24.40;66.30;;;;;;5090758;28;20493;-89
2021/08/15 09:17:06;;;;;;;9.15;3.65;;;24.60;65.70;;;;;;5089058;28;20056;-90
2021/08/15 09:19:40;;;;;;;7.60;3.47;;;24.70;65.30;;;;;;5092588;28;20386;-88
2021/08/15 09:22:18;;;;;;;11.98;3.83;;;24.80;64.70;;;;;;5083594;28;20044;-90
2021/08/15 09:24:54;;;;;;;8.55;3.67;;;25.00;64.10;;;;;;5079187;28;20096;-89
2021/08/15 09:27:38;;;;;;;8.93;3.88;;;25.20;63.60;;;;;;5075170;28;20055;-90
2021/08/15 09:30:22;;;;;;;7.60;3.55;;;25.30;62.70;;;;;;5090017;28;20044;-90
2021/08/15 09:33:00;;;;;;;11.45;3.63;;;25.40;62.30;;;;;;5075176;28;20048;-90
2021/08/15 09:35:35;;;;;;;10.30;4.35;;;25.50;62.00;;;;;;5076400;28;20048;-90
2021/08/15 09:38:12;;;;;;;11.05;4.05;;;25.60;61.50;;;;;;5079036;28;20052;-89
2021/08/15 09:40:53;;;;;;;10.02;3.80;;;25.70;60.90;;;;;;5078832;28;20063;-90
2021/08/15 09:43:21;;;;;;;15.23;4.10;;;25.80;60.50;;;;;;5078453;28;20044;-92
2021/08/15 09:45:54;;;;;;;7.07;3.55;;;25.90;60.60;;;;;;5078442;28;20098;-90
2021/08/15 09:48:40;;;;;;;8.20;3.60;;;26.00;59.90;;;;;;5079763;28;20048;-90
2021/08/15 09:51:11;;;;;;;6.03;3.45;;;26.10;59.80;;;;;;5090087;28;20047;-87
2021/08/15 09:53:56;;;;;;;9.35;3.45;;;26.30;59.90;;;;;;5075493;28;20040;-90
2021/08/15 09:56:37;;;;;;;8.35;3.67;;;26.30;59.20;;;;;;5089516;28;20048;-88
2021/08/15 09:59:25;;;;;;;8.82;3.70;;;26.50;59.20;;;;;;5077985;28;20099;-90
2021/08/15 10:01:54;;;;;;;11.13;3.63;;;26.60;59.00;;;;;;5088634;28;20078;-89
2021/08/15 10:04:23;;;;;;;8.30;3.85;;;26.70;58.50;;;;;;5081078;28;20102;-91
2021/08/15 10:06:55;;;;;;;9.63;3.55;;;26.80;58.30;;;;;;5078424;28;20099;-89
2021/08/15 10:09:25;;;;;;;8.20;3.70;;;26.90;58.30;;;;;;5078531;28;20398;-90
2021/08/15 10:11:52;;;;;;;9.25;4.13;;;27.00;58.10;;;;;;5074595;28;20048;-89
2021/08/15 10:14:19;;;;;;;11.80;3.90;;;27.10;57.90;;;;;;5076844;28;20510;-88
2021/08/15 10:16:51;;;;;;;8.13;3.40;;;27.30;58.30;;;;;;5078276;28;20512;-89
2021/08/15 10:19:26;;;;;;;13.80;3.58;;;27.40;58.00;;;;;;5078096;28;20045;-90
2021/08/15 10:21:54;;;;;;;9.15;4.15;;;27.50;57.40;;;;;;5078346;28;20049;-89
2021/08/15 10:24:21;;;;;;;8.40;3.40;;;27.60;56.50;;;;;;5078004;28;20078;-88
2021/08/15 10:26:52;;;;;;;10.52;4.22;;;27.70;56.40;;;;;;5075360;28;20052;-91
2021/08/15 10:29:41;;;;;;;9.27;3.83;;;27.80;56.20;;;;;;5088730;28;20105;-88
2021/08/15 10:32:12;;;;;;;8.70;3.42;;;27.90;55.50;;;;;;5076687;28;20060;-90
2021/08/15 10:34:51;;;;;;;8.77;3.40;;;28.10;55.50;;;;;;5077672;28;20453;-90
2021/08/15 10:37:28;;;;;;;7.25;3.53;;;28.20;54.70;;;;;;5083227;28;20093;-89
2021/08/15 10:40:03;;;;;;;7.80;3.95;;;28.30;54.80;;;;;;5089398;28;20048;-91
2021/08/15 10:42:39;;;;;;;9.95;4.10;;;28.40;54.70;;;;;;5085835;28;20102;-90
2021/08/15 10:45:15;;;;;;;16.58;3.70;;;28.50;54.50;;;;;;5087956;28;20040;-90
2021/08/15 10:48:02;;;;;;;11.55;3.50;;;28.60;54.30;;;;;;5089636;28;20045;-89
2021/08/15 10:50:56;;;;;;;8.65;3.70;;;28.70;54.70;;;;;;5090776;28;20047;-89
2021/08/15 10:53:26;;;;;;;9.23;3.60;;;28.70;54.50;;;;;;5070695;28;20129;-89
2021/08/15 10:55:54;;;;;;;9.10;4.35;;;28.80;54.70;;;;;;5074021;28;20052;-88
2021/08/15 10:58:44;;;;;;;10.02;3.83;;;28.90;53.90;;;;;;5077223;28;20048;-87
2021/08/15 11:01:13;;;;;;;6.40;3.65;;;28.90;53.50;;;;;;5077404;28;20490;-89
2021/08/15 11:03:46;;;;;;;9.20;3.95;;;29.00;53.20;;;;;;5078602;28;20565;-89
2021/08/15 11:06:41;;;;;;;7.28;3.35;;;29.00;53.00;;;;;;5089222;28;20059;-91
2021/08/15 11:09:09;;;;;;;9.80;3.70;;;29.10;52.80;;;;;;5077676;28;20070;-91
2021/08/15 11:11:56;;;;;;;8.80;3.67;;;29.10;52.50;;;;;;5089730;28;20101;-90
2021/08/15 11:14:25;;;;;;;7.15;3.70;;;29.10;52.60;;;;;;5088045;28;20464;-90
2021/08/15 11:16:57;;;;;;;6.43;3.60;;;29.10;53.00;;;;;;5077439;28;20529;-88
2021/08/15 11:19:26;;;;;;;8.05;3.90;;;29.20;53.30;;;;;;5077146;28;20048;-88
2021/08/15 11:22:08;;;;;;;8.35;4.10;;;29.30;53.40;;;;;;5081757;28;20051;-90
2021/08/15 11:24:46;;;;;;;10.55;4.00;;;29.30;53.20;;;;;;5085606;28;20098;-92
2021/08/15 11:27:14;;;;;;;8.32;3.90;;;29.40;53.20;;;;;;5088244;28;20051;-90
2021/08/15 11:29:44;;;;;;;7.47;3.85;;;29.40;53.30;;;;;;5071948;28;20102;-92
2021/08/15 11:32:18;;;;;;;7.63;3.55;;;29.40;53.10;;;;;;5076747;28;20056;-90
2021/08/15 11:35:07;;;;;;;7.50;3.50;;;29.50;53.10;;;;;;5077417;28;20472;-88
2021/08/15 11:37:38;;;;;;;9.07;3.88;;;29.60;53.40;;;;;;5084199;28;20052;-89
2021/08/15 11:40:13;;;;;;;18.20;3.78;;;29.80;53.20;;;;;;5085901;28;20089;-90
2021/08/15 11:42:41;;;;;;;10.38;4.00;;;29.80;52.10;;;;;;5084712;28;20052;-91
2021/08/15 11:45:09;;;;;;;10.20;4.10;;;29.80;51.80;;;;;;5076460;28;20047;-91
2021/08/15 11:47:38;;;;;;;10.18;3.83;;;29.80;52.00;;;;;;5073376;28;20098;-90
2021/08/15 11:50:23;;;;;;;13.88;4.07;;;29.80;52.00;;;;;;5076492;28;20465;-91
2021/08/15 11:52:51;;;;;;;8.00;3.55;;;29.80;52.30;;;;;;5086914;28;20048;-89
2021/08/15 11:55:24;;;;;;;9.98;4.63;;;29.90;52.40;;;;;;5083391;28;20475;-89
2021/08/15 11:57:57;;;;;;;9.05;4.38;;;29.90;52.40;;;;;;5085722;28;20048;-89
2021/08/15 12:00:34;;;;;;;11.32;4.10;;;29.90;52.60;;;;;;5093278;28;20508;-90
2021/08/15 12:03:05;;;;;;;8.68;4.00;;;29.90;52.70;;;;;;5074155;28;20052;-89
2021/08/15 12:05:41;;;;;;;8.75;3.97;;;30.10;52.60;;;;;;5073888;28;20076;-90
2021/08/15 12:08:11;;;;;;;28.90;4.80;;;30.20;52.40;;;;;;5076698;28;20427;-90
2021/08/15 12:10:50;;;;;;;9.27;4.10;;;30.20;51.90;;;;;;5076191;28;20083;-91
2021/08/15 12:13:33;;;;;;;10.30;3.97;;;30.20;51.90;;;;;;5076620;28;20044;-89
2021/08/15 12:16:00;;;;;;;;;;;30.30;52.30;;;;;;5076708;28;20071;-88
2021/08/15 12:18:55;;;;;;;10.10;4.10;;;30.30;52.60;;;;;;5076492;28;19924;-92
2021/08/15 12:21:33;;;;;;;13.57;4.30;;;30.40;52.10;;;;;;5074990;28;20510;-89
2021/08/15 12:24:14;;;;;;;13.77;4.68;;;30.50;51.80;;;;;;5077909;28;20055;-92
2021/08/15 12:27:05;;;;;;;10.95;4.35;;;30.60;51.70;;;;;;5075963;28;20052;-89
2021/08/15 12:29:53;;;;;;;9.93;4.35;;;30.60;51.30;;;;;;5092531;28;20052;-91
2021/08/15 12:32:30;;;;;;;8.93;3.80;;;30.70;51.20;;;;;;5091697;28;20097;-89
2021/08/15 12:34:58;;;;;;;8.85;3.72;;;30.80;51.20;;;;;;5076019;28;20052;-89
2021/08/15 12:37:44;;;;;;;13.35;4.55;;;30.80;50.80;;;;;;5080245;28;20452;-91
2021/08/15 12:40:13;;;;;;;9.70;4.40;;;30.80;51.10;;;;;;5079882;28;20444;-89
2021/08/15 12:42:51;;;;;;;16.65;4.45;;;30.80;51.40;;;;;;5080217;28;20044;-88
2021/08/15 12:45:33;;;;;;;12.05;4.35;;;30.80;51.20;;;;;;5087100;28;20052;-90
2021/08/15 12:48:02;;;;;;;8.88;4.30;;;30.80;51.60;;;;;;5077812;28;20041;-94
2021/08/15 12:50:30;;;;;;;9.77;3.85;;;30.90;52.20;;;;;;5076328;28;20052;-92
2021/08/15 12:53:03;;;;;;;11.25;4.22;;;30.80;51.80;;;;;;5076389;28;20139;-89
2021/08/15 12:55:34;;;;;;;10.98;4.35;;;30.80;52.00;;;;;;5079732;28;20102;-92